createdAt,value
2023-04-24T00:00:43.229Z,83.04
2023-04-24T00:01:43.226Z,82.93
2023-04-24T00:02:43.369Z,82.93
2023-04-24T00:03:43.354Z,82.93
2023-04-24T00:04:43.312Z,83.04
2023-04-24T00:05:43.141Z,83.04
2023-04-24T00:06:43.130Z,83.04
2023-04-24T00:07:43.184Z,82.87
2023-04-24T00:08:43.117Z,83.07
2023-04-24T00:09:43.385Z,83.18
2023-04-24T00:10:43.100Z,83.48
2023-04-24T00:11:43.116Z,83.48
2023-04-24T00:12:43.121Z,83.79
2023-04-24T00:13:43.056Z,83.89
2023-04-24T00:14:43.041Z,83.79
2023-04-24T00:15:43.030Z,84.00
2023-04-24T00:16:43.070Z,83.89
2023-04-24T00:17:43.049Z,84.00
2023-04-24T00:18:42.996Z,83.89
2023-04-24T00:19:43.278Z,83.79
2023-04-24T00:20:42.999Z,83.69
2023-04-24T00:21:43.024Z,83.79
2023-04-24T00:22:42.963Z,83.69
2023-04-24T00:23:42.990Z,83.48
2023-04-24T00:24:42.933Z,83.48
2023-04-24T00:25:42.936Z,83.38
2023-04-24T00:26:42.909Z,83.38
2023-04-24T00:27:42.906Z,83.59
2023-04-24T00:28:42.951Z,83.59
2023-04-24T00:29:43.208Z,83.69
2023-04-24T00:30:42.883Z,83.79
2023-04-24T00:31:42.884Z,83.89
2023-04-24T00:32:42.906Z,83.89
2023-04-24T00:33:42.838Z,84.09
2023-04-24T00:34:42.930Z,84.09
2023-04-24T00:35:42.929Z,84.00
2023-04-24T00:36:42.801Z,84.09
2023-04-24T00:37:42.821Z,84.09
2023-04-24T00:38:42.780Z,84.20
2023-04-24T00:39:42.979Z,84.30
2023-04-24T00:40:42.759Z,84.61
2023-04-24T00:41:42.754Z,84.65
2023-04-24T00:42:42.738Z,84.75
2023-04-24T00:43:42.756Z,84.75
2023-04-24T00:44:42.735Z,84.75
2023-04-24T00:45:42.705Z,84.61
2023-04-24T00:46:42.853Z,84.71
2023-04-24T00:47:42.803Z,84.50
2023-04-24T00:48:42.670Z,84.50
2023-04-24T00:49:42.900Z,84.50
2023-04-24T00:50:42.646Z,84.41
2023-04-24T00:51:42.637Z,84.30
2023-04-24T00:52:42.734Z,84.61
2023-04-24T00:53:42.640Z,84.61
2023-04-24T00:54:42.604Z,84.81
2023-04-24T00:55:42.610Z,84.61
2023-04-24T00:56:42.603Z,84.71
2023-04-24T00:57:42.604Z,85.02
2023-04-24T00:58:42.569Z,85.02
2023-04-24T00:59:42.794Z,85.12
2023-04-24T01:00:42.534Z,85.22
2023-04-24T01:01:42.567Z,85.02
2023-04-24T01:02:42.603Z,85.22
2023-04-24T01:03:42.735Z,85.22
2023-04-24T01:04:42.640Z,85.36
2023-04-24T01:05:42.490Z,85.47
2023-04-24T01:06:42.484Z,85.47
2023-04-24T01:07:42.489Z,85.47
2023-04-24T01:08:42.463Z,85.67
2023-04-24T01:09:42.767Z,85.67
2023-04-24T01:10:42.495Z,85.97
2023-04-24T01:11:42.436Z,85.88
2023-04-24T01:12:42.468Z,85.97
2023-04-24T01:14:03.432Z,85.77
2023-04-24T01:14:42.408Z,85.26
2023-04-24T01:15:42.474Z,84.41
2023-04-24T01:16:42.392Z,83.89
2023-04-24T01:17:42.441Z,83.48
2023-04-24T01:18:42.360Z,83.04
2023-04-24T01:19:42.593Z,82.73
2023-04-24T01:20:42.336Z,82.32
2023-04-24T01:21:42.326Z,82.32
2023-04-24T01:22:42.326Z,82.83
2023-04-24T01:23:42.327Z,82.93
2023-04-24T01:24:42.298Z,82.53
2023-04-24T01:25:42.277Z,82.42
2023-04-24T01:26:42.270Z,81.81
2023-04-24T01:27:42.314Z,82.12
2023-04-24T01:28:42.244Z,82.32
2023-04-24T01:29:42.591Z,82.53
2023-04-24T01:30:42.237Z,82.32
2023-04-24T01:31:42.299Z,82.15
2023-04-24T01:32:42.240Z,82.05
2023-04-24T01:33:42.193Z,79.70
2023-04-24T01:34:42.192Z,78.58
2023-04-24T01:35:42.184Z,78.58
2023-04-24T01:36:42.231Z,78.58
2023-04-24T01:37:42.159Z,78.17
2023-04-24T01:38:42.157Z,77.66
2023-04-24T01:39:42.522Z,77.86
2023-04-24T01:40:42.113Z,77.97
2023-04-24T01:41:42.121Z,78.17
2023-04-24T01:42:42.126Z,78.27
2023-04-24T01:43:42.086Z,78.17
2023-04-24T01:44:42.123Z,77.66
2023-04-24T01:45:42.078Z,76.84
2023-04-24T01:46:42.114Z,76.94
2023-04-24T01:47:42.084Z,77.04
2023-04-24T01:48:42.032Z,76.23
2023-04-24T01:49:42.205Z,75.71
2023-04-24T01:50:42.004Z,76.06
2023-04-24T01:51:41.993Z,76.06
2023-04-24T01:52:42.014Z,76.37
2023-04-24T01:53:41.975Z,75.55
2023-04-24T01:54:41.966Z,75.85
2023-04-24T01:55:41.954Z,76.26
2023-04-24T01:56:41.951Z,76.57
2023-04-24T01:57:42.034Z,76.71
2023-04-24T01:58:41.930Z,77.01
2023-04-24T01:59:42.304Z,77.32
2023-04-24T02:00:42.061Z,77.53
2023-04-24T02:01:41.928Z,77.94
2023-04-24T02:02:42.122Z,78.24
2023-04-24T02:03:41.998Z,78.17
2023-04-24T02:04:41.915Z,78.49
2023-04-24T02:05:41.933Z,78.59
2023-04-24T02:06:41.887Z,78.49
2023-04-24T02:07:41.874Z,78.08
2023-04-24T02:08:41.823Z,78.49
2023-04-24T02:09:42.019Z,77.97
2023-04-24T02:10:41.797Z,77.67
2023-04-24T02:11:41.785Z,78.17
2023-04-24T02:12:41.866Z,78.59
2023-04-24T02:13:41.763Z,78.69
2023-04-24T02:14:41.737Z,78.79
2023-04-24T02:15:41.800Z,78.52
2023-04-24T02:16:41.804Z,78.83
2023-04-24T02:17:41.837Z,78.93
2023-04-24T02:18:41.694Z,79.13
2023-04-24T02:19:41.864Z,79.24
2023-04-24T02:20:41.675Z,79.13
2023-04-24T02:21:41.697Z,79.54
2023-04-24T02:22:41.718Z,79.79
2023-04-24T02:23:41.666Z,79.89
2023-04-24T02:24:41.629Z,79.48
2023-04-24T02:25:41.622Z,78.35
2023-04-24T02:26:41.686Z,78.56
2023-04-24T02:27:41.646Z,77.98
2023-04-24T02:28:41.602Z,78.70
2023-04-24T02:29:41.897Z,78.90
2023-04-24T02:30:41.566Z,78.49
2023-04-24T02:31:41.649Z,78.70
2023-04-24T02:32:41.597Z,78.83
2023-04-24T02:33:41.553Z,78.83
2023-04-24T02:34:41.533Z,79.35
2023-04-24T02:35:41.577Z,79.24
2023-04-24T02:36:41.550Z,79.49
2023-04-24T02:37:41.503Z,79.69
2023-04-24T02:38:41.480Z,79.49
2023-04-24T02:39:41.661Z,79.69
2023-04-24T02:40:41.494Z,79.28
2023-04-24T02:41:41.477Z,79.28
2023-04-24T02:42:41.447Z,79.69
2023-04-24T02:43:41.427Z,79.42
2023-04-24T02:44:41.428Z,79.63
2023-04-24T02:45:41.476Z,79.63
2023-04-24T02:46:41.410Z,78.91
2023-04-24T02:47:41.405Z,79.63
2023-04-24T02:48:41.385Z,80.24
2023-04-24T02:49:41.602Z,80.04
2023-04-24T02:50:41.435Z,80.18
2023-04-24T02:51:41.376Z,79.97
2023-04-24T02:52:41.342Z,80.38
2023-04-24T02:53:41.316Z,80.38
2023-04-24T02:54:41.314Z,80.69
2023-04-24T02:55:41.304Z,81.10
2023-04-24T02:56:41.336Z,80.69
2023-04-24T02:57:41.288Z,80.69
2023-04-24T02:58:41.259Z,80.69
2023-04-24T02:59:41.437Z,81.10
2023-04-24T03:00:41.260Z,80.58
2023-04-24T03:01:41.296Z,80.18
2023-04-24T03:02:41.398Z,80.79
2023-04-24T03:03:41.421Z,80.69
2023-04-24T03:04:41.344Z,80.18
2023-04-24T03:05:41.200Z,80.18
2023-04-24T03:06:41.189Z,80.58
2023-04-24T03:07:41.159Z,80.58
2023-04-24T03:08:41.160Z,80.90
2023-04-24T03:09:41.515Z,80.79
2023-04-24T03:10:41.132Z,80.69
2023-04-24T03:11:41.148Z,81.00
2023-04-24T03:12:41.140Z,80.69
2023-04-24T03:13:41.106Z,80.79
2023-04-24T03:14:41.089Z,80.28
2023-04-24T03:15:41.131Z,80.49
2023-04-24T03:16:41.332Z,80.38
2023-04-24T03:17:41.103Z,80.38
2023-04-24T03:18:41.045Z,80.58
2023-04-24T03:19:41.244Z,80.38
2023-04-24T03:20:41.071Z,80.38
2023-04-24T03:21:41.013Z,80.18
2023-04-24T03:22:41.015Z,80.38
2023-04-24T03:23:40.999Z,80.32
2023-04-24T03:24:40.976Z,80.18
2023-04-24T03:25:40.965Z,80.21
2023-04-24T03:26:40.981Z,80.52
2023-04-24T03:27:40.962Z,80.52
2023-04-24T03:28:40.937Z,80.32
2023-04-24T03:29:41.166Z,80.11
2023-04-24T03:30:40.947Z,80.21
2023-04-24T03:31:41.052Z,79.80
2023-04-24T03:32:41.022Z,80.01
2023-04-24T03:33:40.939Z,80.21
2023-04-24T03:34:40.877Z,80.21
2023-04-24T03:35:40.873Z,80.11
2023-04-24T03:36:40.879Z,80.21
2023-04-24T03:37:40.839Z,80.32
2023-04-24T03:38:40.835Z,80.63
2023-04-24T03:39:41.104Z,80.32
2023-04-24T03:40:40.822Z,80.01
2023-04-24T03:41:40.813Z,79.66
2023-04-24T03:42:40.804Z,79.46
2023-04-24T03:43:40.795Z,79.56
2023-04-24T03:44:40.788Z,79.36
2023-04-24T03:45:40.754Z,79.56
2023-04-24T03:46:40.850Z,79.80
2023-04-24T03:47:40.769Z,80.01
2023-04-24T03:48:40.731Z,80.32
2023-04-24T03:49:40.978Z,80.73
2023-04-24T03:50:40.697Z,80.77
2023-04-24T03:51:40.728Z,80.52
2023-04-24T03:52:40.682Z,80.42
2023-04-24T03:53:40.712Z,80.77
2023-04-24T03:54:40.653Z,80.46
2023-04-24T03:55:40.706Z,80.77
2023-04-24T03:56:40.657Z,79.80
2023-04-24T03:57:40.621Z,80.01
2023-04-24T03:58:40.623Z,80.42
2023-04-24T03:59:40.828Z,80.21
2023-04-24T04:00:40.585Z,80.11
2023-04-24T04:01:42.176Z,80.32
2023-04-24T04:02:40.684Z,80.56
2023-04-24T04:03:40.783Z,80.66
2023-04-24T04:04:40.782Z,80.11
2023-04-24T04:05:40.536Z,80.42
2023-04-24T04:06:40.534Z,80.77
2023-04-24T04:07:40.617Z,80.73
2023-04-24T04:08:40.504Z,80.56
2023-04-24T04:09:40.603Z,80.73
2023-04-24T04:10:40.521Z,80.73
2023-04-24T04:11:40.856Z,80.63
2023-04-24T04:12:40.462Z,80.63
2023-04-24T04:13:40.452Z,80.73
2023-04-24T04:14:40.460Z,80.52
2023-04-24T04:15:40.427Z,80.52
2023-04-24T04:16:40.501Z,80.42
2023-04-24T04:17:40.433Z,80.32
2023-04-24T04:18:40.405Z,80.35
2023-04-24T04:19:40.578Z,79.91
2023-04-24T04:20:40.379Z,80.21
2023-04-24T04:21:40.398Z,80.35
2023-04-24T04:22:42.651Z,80.46
2023-04-24T04:23:40.399Z,80.97
2023-04-24T04:24:40.323Z,80.46
2023-04-24T04:25:40.409Z,80.87
2023-04-24T04:26:40.315Z,81.07
2023-04-24T04:27:40.307Z,80.97
2023-04-24T04:28:40.288Z,81.38
2023-04-24T04:29:40.372Z,81.69
2023-04-24T04:30:40.285Z,82.24
2023-04-24T04:31:40.328Z,81.28
2023-04-24T04:32:40.267Z,81.28
2023-04-24T04:33:40.375Z,81.38
2023-04-24T04:34:40.270Z,81.59
2023-04-24T04:35:40.217Z,81.79
2023-04-24T04:36:40.203Z,81.07
2023-04-24T04:37:40.246Z,81.28
2023-04-24T04:38:41.169Z,81.04
2023-04-24T04:39:40.346Z,80.83
2023-04-24T04:40:40.155Z,80.52
2023-04-24T04:41:40.327Z,80.52
2023-04-24T04:42:40.174Z,81.04
2023-04-24T04:43:40.133Z,81.34
2023-04-24T04:44:40.107Z,80.93
2023-04-24T04:45:40.174Z,81.45
2023-04-24T04:46:40.111Z,81.65
2023-04-24T04:47:40.128Z,81.34
2023-04-24T04:48:40.062Z,81.04
2023-04-24T04:49:40.359Z,80.42
2023-04-24T04:50:40.048Z,80.32
2023-04-24T04:51:42.392Z,80.21
2023-04-24T04:52:40.044Z,80.18
2023-04-24T04:53:40.017Z,80.07
2023-04-24T04:54:40.142Z,80.18
2023-04-24T04:55:40.011Z,79.97
2023-04-24T04:56:39.995Z,79.87
2023-04-24T04:57:39.987Z,80.18
2023-04-24T04:58:39.957Z,80.28
2023-04-24T04:59:39.968Z,80.11
2023-04-24T05:00:39.930Z,79.87
2023-04-24T05:01:40.037Z,80.07
2023-04-24T05:02:40.068Z,80.07
2023-04-24T05:03:40.479Z,79.87
2023-04-24T05:04:40.115Z,80.11
2023-04-24T05:05:39.900Z,80.21
2023-04-24T05:06:40.020Z,80.21
2023-04-24T05:07:39.880Z,80.42
2023-04-24T05:08:39.857Z,80.52
2023-04-24T05:09:39.842Z,80.42
2023-04-24T05:10:39.836Z,80.11
2023-04-24T05:11:39.963Z,80.11
2023-04-24T05:12:39.862Z,80.32
2023-04-24T05:13:40.940Z,80.42
2023-04-24T05:14:39.831Z,80.42
2023-04-24T05:15:39.782Z,80.63
2023-04-24T05:16:39.836Z,80.42
2023-04-24T05:17:39.791Z,80.63
2023-04-24T05:18:39.746Z,80.83
2023-04-24T05:19:39.956Z,80.93
2023-04-24T05:20:39.734Z,80.73
2023-04-24T05:21:39.755Z,80.73
2023-04-24T05:22:39.713Z,80.63
2023-04-24T05:23:39.713Z,80.49
2023-04-24T05:24:39.672Z,80.38
2023-04-24T05:25:39.686Z,80.49
2023-04-24T05:26:39.682Z,80.69
2023-04-24T05:27:39.658Z,80.69
2023-04-24T05:28:39.631Z,80.49
2023-04-24T05:29:39.636Z,80.49
2023-04-24T05:30:39.624Z,80.38
2023-04-24T05:31:39.702Z,80.49
2023-04-24T05:32:39.624Z,80.69
2023-04-24T05:33:39.643Z,80.65
2023-04-24T05:34:39.574Z,80.79
2023-04-24T05:35:39.561Z,80.86
2023-04-24T05:36:39.567Z,80.86
2023-04-24T05:37:39.574Z,81.06
2023-04-24T05:38:39.531Z,81.16
2023-04-24T05:39:39.673Z,80.96
2023-04-24T05:40:39.515Z,80.86
2023-04-24T05:41:39.524Z,80.65
2023-04-24T05:42:39.558Z,80.55
2023-04-24T05:43:39.486Z,80.45
2023-04-24T05:44:39.492Z,80.45
2023-04-24T05:45:39.450Z,80.45
2023-04-24T05:46:39.557Z,80.55
2023-04-24T05:47:39.475Z,80.45
2023-04-24T05:48:39.492Z,80.45
2023-04-24T05:49:39.446Z,80.45
2023-04-24T05:50:39.402Z,80.35
2023-04-24T05:51:39.420Z,80.45
2023-04-24T05:52:39.420Z,80.24
2023-04-24T05:53:39.376Z,80.24
2023-04-24T05:54:39.349Z,80.65
2023-04-24T05:55:39.380Z,80.65
2023-04-24T05:56:40.727Z,80.76
2023-04-24T05:57:39.328Z,80.04
2023-04-24T05:58:39.309Z,80.35
2023-04-24T05:59:39.352Z,80.55
2023-04-24T06:00:39.303Z,80.04
2023-04-24T06:01:39.314Z,80.55
2023-04-24T06:02:39.376Z,80.55
2023-04-24T06:03:39.461Z,80.86
2023-04-24T06:04:39.477Z,80.65
2023-04-24T06:05:39.297Z,81.16
2023-04-24T06:06:39.229Z,81.48
2023-04-24T06:07:39.288Z,81.88
2023-04-24T06:08:39.210Z,81.99
2023-04-24T06:09:39.201Z,81.99
2023-04-24T06:10:39.246Z,82.40
2023-04-24T06:11:39.187Z,82.91
2023-04-24T06:12:39.167Z,83.53
2023-04-24T06:13:39.157Z,84.04
2023-04-24T06:14:39.191Z,83.94
2023-04-24T06:15:39.133Z,84.04
2023-04-24T06:16:39.195Z,83.53
2023-04-24T06:17:39.186Z,83.42
2023-04-24T06:18:39.089Z,83.83
2023-04-24T06:19:39.093Z,84.76
2023-04-24T06:20:39.072Z,84.76
2023-04-24T06:21:39.076Z,85.58
2023-04-24T06:22:39.105Z,85.58
2023-04-24T06:23:39.217Z,85.47
2023-04-24T06:24:39.047Z,85.47
2023-04-24T06:25:39.055Z,85.58
2023-04-24T06:26:39.154Z,85.89
2023-04-24T06:27:39.014Z,84.20
2023-04-24T06:28:39.072Z,84.52
2023-04-24T06:29:38.983Z,84.92
2023-04-24T06:30:39.057Z,85.13
2023-04-24T06:31:39.041Z,84.10
2023-04-24T06:32:39.291Z,84.52
2023-04-24T06:33:38.993Z,83.90
2023-04-24T06:34:38.973Z,83.80
2023-04-24T06:35:38.953Z,84.10
2023-04-24T06:36:38.943Z,82.32
2023-04-24T06:37:38.913Z,82.53
2023-04-24T06:38:38.922Z,82.53
2023-04-24T06:39:38.940Z,83.04
2023-04-24T06:40:39.280Z,83.34
2023-04-24T06:41:38.970Z,84.78
2023-04-24T06:42:38.837Z,84.99
2023-04-24T06:43:38.833Z,85.54
2023-04-24T06:44:38.856Z,86.66
2023-04-24T06:45:38.964Z,87.18
2023-04-24T06:46:41.011Z,87.59
2023-04-24T06:47:38.822Z,85.95
2023-04-24T06:48:38.781Z,86.66
2023-04-24T06:49:38.796Z,85.95
2023-04-24T06:50:38.905Z,86.57
2023-04-24T06:51:38.824Z,85.64
2023-04-24T06:52:38.784Z,86.46
2023-04-24T06:53:38.734Z,87.53
2023-04-24T06:54:39.144Z,86.30
2023-04-24T06:55:38.735Z,86.19
2023-04-24T06:56:38.721Z,86.91
2023-04-24T06:57:38.709Z,88.24
2023-04-24T06:58:38.721Z,88.24
2023-04-24T06:59:38.748Z,87.98
2023-04-24T07:00:38.645Z,87.98
2023-04-24T07:01:38.714Z,88.70
2023-04-24T07:02:38.891Z,89.42
2023-04-24T07:03:38.818Z,89.31
2023-04-24T07:04:38.707Z,89.01
2023-04-24T07:05:38.597Z,88.39
2023-04-24T07:06:38.614Z,88.70
2023-04-24T07:07:38.629Z,87.88
2023-04-24T07:08:38.588Z,88.18
2023-04-24T07:09:38.693Z,89.21
2023-04-24T07:10:38.527Z,90.34
2023-04-24T07:11:38.595Z,90.44
2023-04-24T07:12:38.528Z,90.34
2023-04-24T07:13:38.542Z,89.21
2023-04-24T07:14:38.498Z,89.31
2023-04-24T07:15:38.526Z,90.44
2023-04-24T07:16:38.654Z,90.55
2023-04-24T07:17:38.519Z,89.42
2023-04-24T07:18:38.498Z,88.90
2023-04-24T07:19:38.444Z,89.42
2023-04-24T07:20:38.479Z,88.59
2023-04-24T07:21:38.439Z,89.52
2023-04-24T07:22:38.419Z,89.83
2023-04-24T07:23:38.425Z,90.44
2023-04-24T07:24:38.554Z,89.83
2023-04-24T07:25:38.380Z,89.83
2023-04-24T07:26:38.375Z,89.93
2023-04-24T07:27:38.409Z,90.14
2023-04-24T07:28:38.370Z,90.14
2023-04-24T07:29:38.340Z,90.75
2023-04-24T07:30:38.319Z,90.95
2023-04-24T07:31:38.356Z,91.31
2023-04-24T07:32:38.400Z,92.23
2023-04-24T07:33:38.300Z,92.54
2023-04-24T07:34:38.335Z,92.03
2023-04-24T07:35:38.315Z,91.93
2023-04-24T07:36:38.291Z,91.41
2023-04-24T07:37:38.252Z,92.03
2023-04-24T07:38:38.255Z,92.64
2023-04-24T07:39:38.231Z,93.16
2023-04-24T07:40:38.212Z,93.46
2023-04-24T07:41:38.315Z,93.57
2023-04-24T07:42:38.186Z,93.26
2023-04-24T07:43:38.205Z,93.16
2023-04-24T07:44:38.180Z,93.77
2023-04-24T07:45:38.250Z,93.77
2023-04-24T07:46:38.223Z,94.18
2023-04-24T07:47:38.181Z,94.59
2023-04-24T07:48:38.146Z,94.80
2023-04-24T07:49:38.127Z,94.80
2023-04-24T07:50:38.113Z,95.21
2023-04-24T07:51:38.137Z,95.31
2023-04-24T07:52:38.144Z,95.42
2023-04-24T07:53:38.109Z,95.62
2023-04-24T07:54:38.060Z,95.52
2023-04-24T07:55:38.096Z,95.52
2023-04-24T07:56:38.057Z,95.83
2023-04-24T07:57:38.164Z,95.93
2023-04-24T07:58:38.024Z,96.14
2023-04-24T07:59:38.053Z,96.14
2023-04-24T08:00:38.008Z,96.14
2023-04-24T08:01:38.010Z,96.23
2023-04-24T08:02:38.122Z,96.03
2023-04-24T08:03:38.063Z,96.14
2023-04-24T08:04:38.244Z,96.03
2023-04-24T08:05:40.243Z,96.23
2023-04-24T08:06:38.055Z,96.34
2023-04-24T08:07:38.272Z,96.55
2023-04-24T08:08:37.942Z,96.55
2023-04-24T08:09:37.959Z,96.65
2023-04-24T08:10:37.958Z,96.39
2023-04-24T08:11:37.947Z,95.87
2023-04-24T08:12:37.892Z,95.46
2023-04-24T08:13:37.876Z,95.36
2023-04-24T08:14:37.849Z,95.46
2023-04-24T08:15:37.840Z,95.67
2023-04-24T08:16:38.120Z,95.50
2023-04-24T08:17:37.819Z,95.50
2023-04-24T08:18:37.815Z,95.50
2023-04-24T08:19:37.795Z,95.50
2023-04-24T08:20:37.817Z,95.40
2023-04-24T08:21:37.781Z,95.40
2023-04-24T08:22:37.827Z,95.40
2023-04-24T08:23:37.798Z,95.40
2023-04-24T08:24:37.850Z,95.61
2023-04-24T08:25:37.794Z,95.92
2023-04-24T08:26:37.732Z,96.02
2023-04-24T08:27:37.721Z,96.12
2023-04-24T08:28:37.718Z,96.33
2023-04-24T08:29:37.701Z,96.53
2023-04-24T08:30:37.665Z,97.05
2023-04-24T08:31:37.758Z,97.15
2023-04-24T08:32:37.715Z,97.05
2023-04-24T08:33:37.650Z,97.15
2023-04-24T08:34:37.634Z,97.36
2023-04-24T08:35:37.881Z,97.45
2023-04-24T08:36:46.591Z,97.45
2023-04-24T08:37:38.628Z,97.36
2023-04-24T08:38:37.586Z,97.56
2023-04-24T08:39:37.591Z,97.66
2023-04-24T08:40:37.569Z,97.30
2023-04-24T08:41:37.648Z,97.50
2023-04-24T08:42:37.547Z,97.61
2023-04-24T08:43:37.582Z,97.50
2023-04-24T08:44:37.530Z,97.61
2023-04-24T08:45:37.626Z,97.19
2023-04-24T08:46:37.576Z,96.83
2023-04-24T08:47:37.566Z,95.80
2023-04-24T08:48:37.490Z,95.49
2023-04-24T08:49:37.465Z,95.49
2023-04-24T08:50:37.485Z,95.49
2023-04-24T08:51:37.460Z,95.90
2023-04-24T08:52:37.446Z,96.21
2023-04-24T08:53:37.438Z,96.11
2023-04-24T08:54:37.444Z,96.05
2023-04-24T08:55:37.405Z,96.05
2023-04-24T08:56:37.409Z,96.56
2023-04-24T08:57:37.395Z,96.46
2023-04-24T08:58:37.463Z,96.36
2023-04-24T08:59:37.385Z,96.31
2023-04-24T09:00:37.353Z,97.03
2023-04-24T09:01:37.431Z,97.24
2023-04-24T09:02:37.574Z,97.24
2023-04-24T09:03:37.571Z,97.03
2023-04-24T09:04:37.480Z,97.14
2023-04-24T09:05:37.297Z,97.03
2023-04-24T09:06:37.300Z,97.14
2023-04-24T09:07:37.302Z,97.34
2023-04-24T09:08:37.285Z,97.55
2023-04-24T09:09:37.255Z,97.44
2023-04-24T09:10:37.249Z,97.55
2023-04-24T09:11:37.274Z,97.44
2023-04-24T09:12:37.278Z,97.86
2023-04-24T09:13:37.310Z,97.96
2023-04-24T09:14:37.249Z,98.16
2023-04-24T09:15:37.190Z,98.27
2023-04-24T09:16:37.264Z,98.27
2023-04-24T09:17:37.239Z,98.16
2023-04-24T09:18:37.178Z,98.27
2023-04-24T09:19:37.154Z,98.47
2023-04-24T09:20:37.244Z,98.47
2023-04-24T09:21:37.155Z,98.58
2023-04-24T09:22:37.129Z,98.68
2023-04-24T09:23:37.106Z,98.79
2023-04-24T09:24:37.109Z,98.88
2023-04-24T09:25:37.116Z,99.09
2023-04-24T09:26:37.082Z,99.19
2023-04-24T09:27:37.068Z,99.09
2023-04-24T09:28:37.046Z,99.19
2023-04-24T09:29:37.097Z,98.99
2023-04-24T09:30:37.045Z,98.99
2023-04-24T09:31:37.062Z,98.99
2023-04-24T09:32:37.141Z,98.99
2023-04-24T09:33:37.001Z,99.09
2023-04-24T09:34:37.065Z,99.19
2023-04-24T09:35:37.003Z,99.35
2023-04-24T09:36:36.978Z,99.25
2023-04-24T09:37:36.988Z,99.35
2023-04-24T09:38:36.956Z,99.46
2023-04-24T09:39:36.958Z,99.66
2023-04-24T09:40:37.579Z,99.66
2023-04-24T09:41:37.027Z,99.72
2023-04-24T09:42:36.908Z,99.82
2023-04-24T09:43:36.883Z,99.93
2023-04-24T09:44:36.905Z,99.72
2023-04-24T09:45:36.890Z,99.51
2023-04-24T09:46:36.985Z,99.31
2023-04-24T09:47:36.952Z,99.21
2023-04-24T09:48:36.849Z,98.79
2023-04-24T09:49:36.820Z,98.59
2023-04-24T09:50:36.958Z,98.49
2023-04-24T09:51:36.889Z,98.59
2023-04-24T09:52:36.808Z,98.28
2023-04-24T09:53:36.775Z,98.18
2023-04-24T09:54:36.779Z,97.97
2023-04-24T09:55:36.753Z,98.03
2023-04-24T09:56:36.784Z,98.33
2023-04-24T09:57:36.732Z,98.13
2023-04-24T09:58:36.808Z,98.44
2023-04-24T09:59:37.533Z,98.65
2023-04-24T10:00:36.752Z,98.91
2023-04-24T10:01:36.988Z,98.91
2023-04-24T10:02:36.882Z,98.60
2023-04-24T10:03:36.787Z,98.80
2023-04-24T10:04:36.783Z,98.80
2023-04-24T10:05:36.663Z,98.29
2023-04-24T10:06:36.670Z,98.50
2023-04-24T10:07:36.619Z,98.55
2023-04-24T10:08:36.654Z,98.55
2023-04-24T10:09:36.855Z,98.45
2023-04-24T10:10:36.738Z,98.19
2023-04-24T10:11:36.661Z,97.99
2023-04-24T10:12:36.653Z,97.99
2023-04-24T10:13:36.696Z,97.57
2023-04-24T10:14:36.559Z,97.37
2023-04-24T10:15:36.614Z,96.85
2023-04-24T10:16:36.552Z,96.75
2023-04-24T10:17:36.522Z,97.37
2023-04-24T10:18:36.523Z,97.37
2023-04-24T10:19:36.511Z,97.67
2023-04-24T10:20:36.500Z,97.57
2023-04-24T10:21:36.498Z,97.94
2023-04-24T10:22:36.469Z,98.25
2023-04-24T10:23:36.460Z,98.35
2023-04-24T10:24:36.452Z,98.35
2023-04-24T10:25:36.445Z,98.55
2023-04-24T10:26:36.451Z,98.71
2023-04-24T10:27:36.421Z,98.61
2023-04-24T10:28:36.566Z,98.82
2023-04-24T10:29:36.393Z,98.77
2023-04-24T10:30:36.394Z,98.97
2023-04-24T10:31:36.399Z,99.03
2023-04-24T10:32:36.404Z,98.32
2023-04-24T10:33:36.347Z,98.32
2023-04-24T10:34:36.340Z,98.27
2023-04-24T10:35:36.324Z,97.34
2023-04-24T10:36:36.346Z,97.96
2023-04-24T10:37:36.316Z,97.96
2023-04-24T10:38:36.335Z,98.02
2023-04-24T10:39:36.312Z,98.22
2023-04-24T10:40:36.347Z,98.22
2023-04-24T10:41:36.271Z,97.81
2023-04-24T10:42:36.261Z,97.40
2023-04-24T10:43:36.310Z,96.89
2023-04-24T10:44:36.360Z,96.01
2023-04-24T10:45:36.249Z,96.22
2023-04-24T10:46:36.263Z,96.01
2023-04-24T10:47:36.318Z,95.91
2023-04-24T10:48:36.208Z,95.81
2023-04-24T10:49:36.230Z,96.01
2023-04-24T10:50:36.273Z,95.97
2023-04-24T10:51:36.160Z,95.25
2023-04-24T10:52:36.151Z,95.29
2023-04-24T10:53:36.135Z,94.17
2023-04-24T10:54:36.152Z,94.58
2023-04-24T10:55:36.114Z,94.95
2023-04-24T10:56:36.113Z,95.46
2023-04-24T10:57:36.103Z,95.76
2023-04-24T10:58:36.086Z,93.86
2023-04-24T10:59:36.071Z,94.27
2023-04-24T11:00:36.257Z,94.17
2023-04-24T11:01:36.251Z,94.48
2023-04-24T11:02:36.219Z,94.07
2023-04-24T11:03:36.416Z,94.17
2023-04-24T11:04:36.062Z,94.64
2023-04-24T11:05:35.998Z,95.05
2023-04-24T11:06:36.145Z,93.96
2023-04-24T11:07:35.995Z,94.07
2023-04-24T11:08:35.974Z,94.48
2023-04-24T11:09:35.965Z,94.99
2023-04-24T11:10:35.970Z,95.40
2023-04-24T11:11:35.968Z,95.61
2023-04-24T11:12:35.922Z,96.12
2023-04-24T11:13:35.932Z,96.12
2023-04-24T11:14:35.906Z,96.12
2023-04-24T11:15:35.912Z,96.63
2023-04-24T11:16:35.958Z,96.53
2023-04-24T11:17:35.882Z,96.94
2023-04-24T11:18:35.856Z,97.24
2023-04-24T11:19:35.855Z,97.61
2023-04-24T11:20:35.894Z,97.20
2023-04-24T11:21:35.840Z,97.20
2023-04-24T11:22:35.808Z,97.20
2023-04-24T11:23:35.815Z,97.20
2023-04-24T11:24:35.789Z,96.58
2023-04-24T11:25:35.796Z,96.79
2023-04-24T11:26:35.786Z,96.99
2023-04-24T11:27:35.813Z,96.95
2023-04-24T11:28:35.758Z,96.33
2023-04-24T11:29:35.748Z,96.23
2023-04-24T11:30:35.772Z,96.23
2023-04-24T11:31:35.790Z,95.72
2023-04-24T11:32:35.762Z,96.33
2023-04-24T11:33:35.700Z,96.74
2023-04-24T11:34:35.716Z,97.41
2023-04-24T11:35:36.795Z,96.29
2023-04-24T11:36:35.667Z,95.51
2023-04-24T11:37:35.664Z,95.47
2023-04-24T11:38:35.682Z,95.21
2023-04-24T11:39:35.632Z,95.98
2023-04-24T11:40:35.622Z,95.47
2023-04-24T11:41:35.627Z,95.10
2023-04-24T11:42:35.597Z,94.39
2023-04-24T11:43:35.622Z,93.57
2023-04-24T11:44:35.688Z,93.67
2023-04-24T11:45:35.808Z,93.47
2023-04-24T11:46:35.681Z,92.90
2023-04-24T11:47:35.558Z,91.97
2023-04-24T11:48:35.532Z,92.18
2023-04-24T11:49:35.529Z,92.96
2023-04-24T11:50:35.512Z,93.98
2023-04-24T11:51:44.552Z,93.93
2023-04-24T11:52:36.484Z,93.22
2023-04-24T11:53:35.548Z,93.01
2023-04-24T11:54:35.466Z,92.19
2023-04-24T11:55:35.452Z,91.99
2023-04-24T11:56:35.479Z,92.05
2023-04-24T11:57:35.455Z,91.54
2023-04-24T11:58:35.435Z,92.15
2023-04-24T11:59:35.417Z,92.56
2023-04-24T12:00:35.485Z,91.60
2023-04-24T12:01:35.449Z,92.11
2023-04-24T12:02:37.498Z,90.68
2023-04-24T12:03:35.629Z,90.99
2023-04-24T12:04:36.102Z,90.37
2023-04-24T12:05:35.609Z,89.86
2023-04-24T12:06:35.346Z,90.37
2023-04-24T12:07:35.342Z,88.53
2023-04-24T12:08:36.639Z,87.96
2023-04-24T12:09:35.306Z,88.37
2023-04-24T12:10:35.356Z,89.09
2023-04-24T12:11:35.356Z,86.73
2023-04-24T12:12:35.289Z,87.35
2023-04-24T12:13:35.260Z,88.17
2023-04-24T12:14:35.272Z,89.50
2023-04-24T12:15:35.318Z,89.29
2023-04-24T12:16:35.311Z,89.33
2023-04-24T12:17:35.336Z,91.13
2023-04-24T12:18:35.211Z,91.27
2023-04-24T12:19:35.212Z,89.84
2023-04-24T12:20:35.261Z,89.84
2023-04-24T12:21:35.205Z,89.89
2023-04-24T12:22:35.162Z,91.22
2023-04-24T12:23:35.265Z,91.01
2023-04-24T12:24:35.165Z,92.10
2023-04-24T12:25:35.143Z,91.69
2023-04-24T12:26:35.138Z,92.60
2023-04-24T12:27:35.132Z,95.02
2023-04-24T12:28:35.106Z,92.77
2023-04-24T12:29:35.140Z,90.82
2023-04-24T12:30:35.087Z,90.52
2023-04-24T12:31:35.128Z,90.41
2023-04-24T12:32:35.112Z,90.52
2023-04-24T12:33:35.052Z,90.72
2023-04-24T12:34:35.061Z,90.52
2023-04-24T12:35:35.306Z,90.62
2023-04-24T12:36:35.040Z,89.90
2023-04-24T12:37:35.037Z,90.31
2023-04-24T12:38:35.027Z,91.23
2023-04-24T12:39:35.048Z,89.59
2023-04-24T12:40:34.980Z,90.72
2023-04-24T12:41:35.027Z,90.27
2023-04-24T12:42:35.044Z,89.65
2023-04-24T12:43:34.944Z,89.76
2023-04-24T12:44:34.935Z,90.23
2023-04-24T12:45:34.909Z,87.98
2023-04-24T12:46:34.971Z,89.06
2023-04-24T12:47:34.889Z,89.18
2023-04-24T12:48:34.909Z,88.17
2023-04-24T12:49:34.917Z,86.73
2023-04-24T12:50:34.893Z,86.39
2023-04-24T12:51:34.912Z,86.15
2023-04-24T12:52:34.993Z,84.66